Time;durP1;ratioP1;P1;durP2;ratioP2;P2;SDS_P1;SDS_P2;PMS_P1;PMS_P2;Temp;Humidity;BMP_temperature;BMP_pressure;BME280_temperature;BME280_humidity;BME280_pressure;Samples;Min_cycle;Max_cycle;Signal;HPM_P1;HPM_P2
2022/12/25 00:01:49;;;;;;;8.07;5.40;;;26.90;59.20;;;;;;4052374;29;20048;-55
2022/12/25 00:04:12;;;;;;;6.90;5.50;;;26.90;59.50;;;;;;4030134;29;20576;-52
2022/12/25 00:06:34;;;;;;;5.68;5.13;;;26.90;59.50;;;;;;4055859;29;20115;-54
2022/12/25 00:08:57;;;;;;;7.20;5.53;;;26.90;59.20;;;;;;4047494;29;20464;-54
2022/12/25 00:11:20;;;;;;;7.60;5.47;;;27.00;59.60;;;;;;4048580;29;20079;-45
2022/12/25 00:13:43;;;;;;;6.70;5.25;;;27.00;59.80;;;;;;4051388;29;20032;-46
2022/12/25 00:16:09;;;;;;;5.80;5.20;;;27.00;59.70;;;;;;4052738;29;20127;-49
2022/12/25 00:18:31;;;;;;;12.82;5.93;;;27.10;59.10;;;;;;4048914;29;20060;-47
2022/12/25 00:21:04;;;;;;;7.28;5.65;;;27.10;59.90;;;;;;4055239;29;20055;-48
2022/12/25 00:23:27;;;;;;;9.65;6.20;;;27.10;60.00;;;;;;4056050;29;20161;-54
2022/12/25 00:25:50;;;;;;;10.30;5.43;;;27.10;60.00;;;;;;4051328;29;20103;-46
2022/12/25 00:28:13;;;;;;;9.30;6.18;;;27.10;59.60;;;;;;4056963;29;20127;-47
2022/12/25 00:30:39;;;;;;;10.45;7.50;;;27.10;59.10;;;;;;4050781;29;20416;-53
2022/12/25 00:33:02;;;;;;;10.25;7.95;;;27.10;59.60;;;;;;4049754;29;20481;-50
2022/12/25 00:35:24;;;;;;;10.77;7.82;;;27.00;59.60;;;;;;4048802;29;20223;-47
2022/12/25 00:37:47;;;;;;;8.52;7.10;;;27.00;59.50;;;;;;4047582;29;20128;-46
2022/12/25 00:40:09;;;;;;;9.30;7.53;;;26.90;59.40;;;;;;4051599;29;20042;-46
2022/12/25 00:42:32;;;;;;;9.50;7.43;;;27.00;59.40;;;;;;4051402;29;20048;-47
2022/12/25 00:44:54;;;;;;;7.72;6.10;;;27.00;59.40;;;;;;4052538;29;20533;-48
2022/12/25 00:47:17;;;;;;;7.75;6.57;;;26.90;59.30;;;;;;4050890;29;20063;-46
2022/12/25 00:49:40;;;;;;;10.07;7.25;;;26.90;59.30;;;;;;4040705;29;20049;-47
2022/12/25 00:52:02;;;;;;;8.65;7.78;;;26.90;59.90;;;;;;4050387;29;20059;-47
2022/12/25 00:54:25;;;;;;;8.90;8.00;;;26.90;60.10;;;;;;4054904;29;20044;-45
2022/12/25 00:56:47;;;;;;;8.35;7.55;;;26.90;60.10;;;;;;4052873;29;20036;-47
2022/12/25 00:59:11;;;;;;;9.45;7.78;;;26.90;59.90;;;;;;4039935;29;20044;-45
2022/12/25 01:01:33;;;;;;;9.43;8.10;;;26.90;59.90;;;;;;4049769;29;20036;-51
2022/12/25 01:03:56;;;;;;;9.10;7.18;;;26.90;60.10;;;;;;4056885;29;20036;-46
2022/12/25 01:06:18;;;;;;;9.25;6.95;;;26.90;59.90;;;;;;4055916;29;20044;-46
2022/12/25 01:11:22;;;;;;;7.13;6.40;;;26.90;59.90;;;;;;4046675;29;20128;-47
2022/12/25 01:13:45;;;;;;;7.28;6.35;;;27.00;59.60;;;;;;4053747;29;20039;-46
2022/12/25 01:16:09;;;;;;;9.13;7.10;;;27.00;59.60;;;;;;4049862;29;20111;-50
2022/12/25 01:18:35;;;;;;;10.35;8.25;;;26.90;59.60;;;;;;4034116;29;20143;-49
2022/12/25 01:20:57;;;;;;;8.50;7.05;;;27.00;60.00;;;;;;4045419;29;20040;-45
2022/12/25 01:23:20;;;;;;;9.90;7.53;;;27.00;60.00;;;;;;4047227;29;20872;-47
2022/12/25 01:25:42;;;;;;;7.60;6.85;;;27.00;60.10;;;;;;4048840;29;20067;-46
2022/12/25 01:28:05;;;;;;;8.13;7.32;;;26.90;59.60;;;;;;4049136;29;20040;-44
2022/12/25 01:30:28;;;;;;;12.63;7.80;;;27.00;60.10;;;;;;4050677;29;20054;-44
2022/12/25 01:32:50;;;;;;;9.27;8.15;;;27.00;60.40;;;;;;4053478;29;20043;-47
2022/12/25 01:35:13;;;;;;;7.63;6.72;;;27.00;60.40;;;;;;4046198;29;20087;-44
2022/12/25 01:37:35;;;;;;;8.27;7.47;;;27.00;60.00;;;;;;4034505;29;20044;-45
2022/12/25 01:39:57;;;;;;;8.90;7.47;;;27.10;60.10;;;;;;4047447;29;20033;-47
2022/12/25 01:42:22;;;;;;;9.32;8.23;;;27.00;60.00;;;;;;4042761;29;20474;-49
2022/12/25 01:44:47;;;;;;;10.15;8.27;;;27.10;60.40;;;;;;4038719;29;20045;-48
2022/12/25 01:47:10;;;;;;;10.32;9.23;;;27.10;60.20;;;;;;4049574;29;20040;-46
2022/12/25 01:49:37;;;;;;;9.52;7.63;;;27.10;60.20;;;;;;4052066;29;20189;-43
2022/12/25 01:52:09;;;;;;;10.05;9.05;;;27.10;59.80;;;;;;4034717;29;20064;-43
2022/12/25 01:54:41;;;;;;;10.80;8.98;;;27.20;60.40;;;;;;4051754;29;20032;-44
2022/12/25 01:57:08;;;;;;;9.52;8.55;;;27.20;60.40;;;;;;4045812;29;20112;-46
2022/12/25 01:59:31;;;;;;;10.20;8.93;;;27.20;60.40;;;;;;4059965;29;20044;-43
2022/12/25 02:01:53;;;;;;;12.23;10.65;;;27.20;60.30;;;;;;4043983;29;20412;-45
2022/12/25 02:04:38;;;;;;;10.10;9.10;;;27.20;60.30;;;;;;4055220;29;20079;-48
2022/12/25 02:07:01;;;;;;;11.02;9.02;;;27.30;60.10;;;;;;4058984;29;20656;-51
2022/12/25 02:09:23;;;;;;;10.20;9.20;;;27.30;60.20;;;;;;4056831;29;20507;-50
2022/12/25 02:11:55;;;;;;;11.68;9.30;;;27.30;60.30;;;;;;4054358;29;20057;-47
2022/12/25 02:14:17;;;;;;;9.95;8.95;;;27.30;60.20;;;;;;4051491;29;20040;-44
2022/12/25 02:16:42;;;;;;;13.52;12.18;;;27.30;60.20;;;;;;4049066;29;20071;-46
2022/12/25 02:19:31;;;;;;;11.27;10.07;;;27.40;60.50;;;;;;4050415;29;20041;-48
2022/12/25 02:22:13;;;;;;;11.32;10.23;;;27.40;60.30;;;;;;4049242;29;20126;-46
2022/12/25 02:25:20;;;;;;;12.05;10.85;;;27.40;60.30;;;;;;4052630;29;20036;-44
2022/12/25 02:28:00;;;;;;;12.32;10.48;;;27.50;60.30;;;;;;3974261;29;20462;-46
2022/12/25 02:30:23;;;;;;;11.90;9.98;;;27.50;60.10;;;;;;4053315;29;20141;-52
2022/12/25 02:36:05;;;;;;;11.13;9.90;;;27.60;60.30;;;;;;3998842;29;20038;-51
2022/12/25 02:38:37;;;;;;;12.88;10.88;;;27.60;60.80;;;;;;3998502;29;20558;-51
2022/12/25 02:41:06;;;;;;;11.70;10.57;;;27.60;60.90;;;;;;4033996;29;20031;-51
2022/12/25 03:08:42;;;;;;;13.82;12.07;;;27.80;60.30;;;;;;4053675;29;20055;-52
2022/12/25 03:13:53;;;;;;;12.63;11.32;;;27.90;60.30;;;;;;4056673;29;20038;-48
2022/12/25 03:18:57;;;;;;;12.75;11.00;;;27.90;60.20;;;;;;4056164;29;20552;-47
2022/12/25 03:26:56;;;;;;;13.20;11.90;;;28.00;60.30;;;;;;4054995;29;20043;-47
2022/12/25 03:32:19;;;;;;;11.60;10.40;;;28.00;60.30;;;;;;4054733;29;20452;-47
2022/12/25 03:35:21;;;;;;;12.23;10.25;;;28.10;60.70;;;;;;4058008;29;20153;-48
2022/12/25 04:36:22;;;;;;;9.63;8.32;;;28.60;60.00;;;;;;4048749;29;20489;-49
2022/12/25 04:38:44;;;;;;;10.65;8.82;;;28.60;59.90;;;;;;4057141;29;20207;-49
2022/12/25 04:41:08;;;;;;;9.40;8.02;;;28.70;59.90;;;;;;4051243;29;20241;-47
2022/12/25 04:43:31;;;;;;;9.52;8.55;;;28.70;59.70;;;;;;4054405;29;20265;-45
2022/12/25 04:45:59;;;;;;;9.48;8.05;;;28.70;59.70;;;;;;4049482;29;20083;-50
2022/12/25 04:48:22;;;;;;;8.13;7.30;;;28.70;59.60;;;;;;4054745;29;20102;-48
2022/12/25 04:50:44;;;;;;;8.97;8.03;;;28.70;59.50;;;;;;4053260;29;20410;-47
2022/12/25 04:53:08;;;;;;;8.65;7.78;;;28.80;59.60;;;;;;4051945;29;20345;-47
2022/12/25 04:55:30;;;;;;;8.93;8.02;;;28.80;59.50;;;;;;4054897;29;20082;-44
2022/12/25 04:57:52;;;;;;;9.30;8.30;;;28.90;59.50;;;;;;4064253;29;20043;-45
2022/12/25 05:00:15;;;;;;;7.97;7.18;;;28.90;59.30;;;;;;4044065;29;20040;-45
2022/12/25 05:02:40;;;;;;;10.17;8.53;;;29.00;59.40;;;;;;4050931;29;20067;-44
2022/12/25 05:05:03;;;;;;;10.60;8.70;;;29.00;59.30;;;;;;4047165;29;20302;-44
2022/12/25 05:07:26;;;;;;;10.03;8.67;;;29.00;59.30;;;;;;4046451;29;20048;-45
2022/12/25 05:09:48;;;;;;;9.73;8.75;;;29.10;59.10;;;;;;4049873;29;20088;-50
2022/12/25 05:12:12;;;;;;;9.90;8.90;;;29.10;59.00;;;;;;4051145;29;20431;-44
2022/12/25 05:14:35;;;;;;;8.90;7.78;;;29.20;59.10;;;;;;4052943;29;20505;-49
2022/12/25 05:16:57;;;;;;;9.88;8.95;;;29.20;59.00;;;;;;4044241;29;20504;-49
2022/12/25 05:19:19;;;;;;;9.02;8.10;;;29.20;58.90;;;;;;4056231;29;20918;-45
2022/12/25 05:21:42;;;;;;;8.93;8.05;;;29.20;58.90;;;;;;4054469;29;20163;-46
2022/12/25 05:24:05;;;;;;;10.20;8.90;;;29.30;59.00;;;;;;4043511;29;20062;-45
2022/12/25 05:26:27;;;;;;;13.20;9.77;;;29.30;58.90;;;;;;4055533;29;20036;-47
2022/12/25 05:28:50;;;;;;;9.75;8.77;;;29.40;59.00;;;;;;4053437;29;20052;-45
2022/12/25 05:31:13;;;;;;;9.45;8.52;;;29.40;58.80;;;;;;4047687;29;20036;-45
2022/12/25 05:33:35;;;;;;;10.25;9.25;;;29.50;58.70;;;;;;4038836;29;20148;-49
2022/12/25 05:36:01;;;;;;;9.65;8.75;;;29.50;58.70;;;;;;4046796;29;20545;-47
2022/12/25 05:38:23;;;;;;;9.27;8.38;;;29.60;58.60;;;;;;4042904;29;20067;-47
2022/12/25 05:40:51;;;;;;;9.30;8.35;;;29.60;58.60;;;;;;4046628;29;20122;-49
2022/12/25 05:43:18;;;;;;;9.10;7.72;;;29.70;58.60;;;;;;4033689;29;20032;-43
2022/12/25 05:45:40;;;;;;;8.95;8.07;;;29.70;58.00;;;;;;4050186;29;20040;-48
2022/12/25 05:48:03;;;;;;;8.85;7.85;;;29.80;58.00;;;;;;4051406;29;20040;-45
2022/12/25 05:50:25;;;;;;;11.68;7.40;;;29.90;58.00;;;;;;4057614;29;20048;-47
2022/12/25 05:52:48;;;;;;;9.02;7.43;;;29.90;57.80;;;;;;4039172;29;20048;-45
2022/12/25 05:55:10;;;;;;;8.23;7.43;;;29.90;57.70;;;;;;4036177;29;20119;-47
2022/12/25 05:57:33;;;;;;;8.85;7.00;;;30.00;57.60;;;;;;4048669;29;20116;-45
2022/12/25 05:59:56;;;;;;;8.18;7.03;;;30.00;57.50;;;;;;4045352;29;20032;-51
2022/12/25 06:02:18;;;;;;;7.80;6.70;;;30.00;57.40;;;;;;4054083;29;20040;-48
2022/12/25 06:04:41;;;;;;;7.10;6.40;;;30.10;57.30;;;;;;4049021;29;20548;-45
2022/12/25 06:07:03;;;;;;;7.82;7.00;;;30.20;57.30;;;;;;4042972;29;20086;-48
2022/12/25 06:09:26;;;;;;;8.75;6.93;;;30.20;57.10;;;;;;4047853;29;20523;-47
2022/12/25 06:11:48;;;;;;;8.30;6.50;;;30.30;57.10;;;;;;4049892;29;20071;-46
2022/12/25 06:14:12;;;;;;;7.00;5.85;;;30.30;56.70;;;;;;4051784;29;20449;-49
2022/12/25 06:16:35;;;;;;;6.88;6.18;;;30.30;56.50;;;;;;4050869;29;20036;-45
2022/12/25 06:18:57;;;;;;;7.28;5.65;;;30.40;56.40;;;;;;4051329;29;20410;-46
2022/12/25 06:21:20;;;;;;;8.02;5.97;;;30.40;56.00;;;;;;4055322;29;20043;-45
2022/12/25 06:23:43;;;;;;;6.20;5.60;;;30.50;55.80;;;;;;4040071;29;20041;-46
2022/12/25 06:26:10;;;;;;;6.55;5.32;;;30.50;55.80;;;;;;4053828;29;20084;-44
2022/12/25 06:28:33;;;;;;;6.38;5.65;;;30.60;55.80;;;;;;4056446;29;20640;-45
2022/12/25 06:30:55;;;;;;;7.38;5.68;;;30.60;55.80;;;;;;4049568;29;20036;-44
2022/12/25 06:33:18;;;;;;;5.85;5.25;;;30.60;55.80;;;;;;4038010;29;20083;-45
2022/12/25 06:35:40;;;;;;;6.45;5.50;;;30.60;55.80;;;;;;4047870;29;20047;-43
2022/12/25 06:38:02;;;;;;;5.95;5.35;;;30.70;55.90;;;;;;4050861;29;20557;-46
2022/12/25 06:40:25;;;;;;;6.60;4.90;;;30.70;55.90;;;;;;4034941;29;20070;-47
2022/12/25 06:42:47;;;;;;;6.43;5.28;;;30.70;55.80;;;;;;4047085;29;20613;-46
2022/12/25 06:45:10;;;;;;;6.00;5.40;;;30.70;55.80;;;;;;4056117;29;20071;-49
2022/12/25 06:47:33;;;;;;;6.57;5.40;;;30.70;55.80;;;;;;4057169;29;20119;-47
2022/12/25 06:49:56;;;;;;;5.85;5.25;;;30.80;55.70;;;;;;4053464;29;20036;-52
2022/12/25 06:52:18;;;;;;;5.40;4.57;;;30.80;55.70;;;;;;4051880;29;20453;-53
2022/12/25 06:54:41;;;;;;;6.35;5.22;;;30.80;55.70;;;;;;4049605;29;20036;-47
2022/12/25 06:57:03;;;;;;;5.95;5.35;;;30.80;55.80;;;;;;4052689;29;20036;-50
2022/12/25 06:59:26;;;;;;;5.40;4.60;;;30.80;56.40;;;;;;4055004;29;20075;-53
2022/12/25 07:01:54;;;;;;;5.22;4.72;;;30.90;55.80;;;;;;4050172;29;20044;-49
2022/12/25 07:04:30;;;;;;;7.43;4.88;;;30.80;55.80;;;;;;4052536;29;20048;-51
2022/12/25 07:06:53;;;;;;;6.28;5.07;;;30.80;55.70;;;;;;4056900;29;20044;-49
2022/12/25 07:09:15;;;;;;;6.90;5.33;;;30.80;55.60;;;;;;4046107;29;20107;-47
2022/12/25 07:11:38;;;;;;;6.68;4.88;;;30.80;55.60;;;;;;4054274;29;20382;-45
2022/12/25 07:14:00;;;;;;;5.75;5.00;;;30.80;55.60;;;;;;4056278;29;20044;-45
2022/12/25 07:16:23;;;;;;;4.72;4.03;;;30.90;55.70;;;;;;4054816;29;20135;-45
2022/12/25 07:18:45;;;;;;;6.97;4.45;;;30.90;55.70;;;;;;4053043;29;20047;-49
2022/12/25 07:21:12;;;;;;;4.90;4.40;;;30.80;55.60;;;;;;4051141;29;20198;-43
2022/12/25 07:23:34;;;;;;;4.90;4.40;;;30.80;55.70;;;;;;4050655;29;20249;-47
2022/12/25 07:25:58;;;;;;;5.60;4.40;;;30.80;55.80;;;;;;4048203;29;20470;-46
2022/12/25 07:28:21;;;;;;;6.22;4.40;;;30.80;55.80;;;;;;4051128;29;20048;-45
2022/12/25 07:30:43;;;;;;;5.25;4.43;;;30.90;55.80;;;;;;4050507;29;20046;-52
2022/12/25 07:33:09;;;;;;;5.30;4.25;;;30.80;55.70;;;;;;4051649;29;20108;-51
2022/12/25 07:35:31;;;;;;;5.85;4.40;;;30.80;55.70;;;;;;4051170;29;20036;-46
2022/12/25 07:37:53;;;;;;;5.53;4.57;;;30.80;55.80;;;;;;4049409;29;20040;-48
2022/12/25 07:40:16;;;;;;;4.75;4.25;;;30.80;55.90;;;;;;4042930;29;20075;-46
2022/12/25 07:42:39;;;;;;;5.17;4.63;;;30.80;55.90;;;;;;4054276;29;20229;-47
2022/12/25 07:45:01;;;;;;;5.00;4.13;;;30.80;56.00;;;;;;4053205;29;20122;-50
2022/12/25 07:47:24;;;;;;;4.93;4.43;;;30.80;56.40;;;;;;4055363;29;20052;-44
2022/12/25 07:49:46;;;;;;;5.60;4.35;;;30.80;56.30;;;;;;4045810;29;20036;-45
2022/12/25 07:52:09;;;;;;;4.87;4.37;;;30.70;56.30;;;;;;4051882;29;20091;-49
2022/12/25 07:54:31;;;;;;;5.55;4.47;;;30.70;56.40;;;;;;4040354;29;20355;-46
2022/12/25 07:56:53;;;;;;;4.82;4.32;;;30.70;56.50;;;;;;4056849;29;20138;-43
2022/12/25 07:59:16;;;;;;;6.93;4.45;;;30.70;56.60;;;;;;4041340;29;20033;-44
2022/12/25 08:01:38;;;;;;;5.88;4.53;;;30.70;56.70;;;;;;4050347;29;20040;-48
2022/12/25 08:04:02;;;;;;;5.57;4.53;;;30.70;56.80;;;;;;4056973;29;20400;-42
2022/12/25 08:06:28;;;;;;;;;;;30.60;56.80;;;;;;4045041;29;20108;-44
2022/12/25 08:08:50;;;;;;;5.65;4.47;;;30.60;56.80;;;;;;4043853;29;19960;-47
2022/12/25 08:11:13;;;;;;;4.47;3.90;;;30.60;56.80;;;;;;4061043;29;20089;-43
2022/12/25 08:13:36;;;;;;;4.83;4.27;;;30.60;56.80;;;;;;4062398;29;20467;-49
2022/12/25 08:15:59;;;;;;;4.87;4.07;;;30.60;57.00;;;;;;4061770;29;20086;-49
2022/12/25 08:18:21;;;;;;;;;;;30.60;57.00;;;;;;4062954;29;20314;-46
2022/12/25 08:20:43;;;;;;;4.78;3.95;;;30.60;57.10;;;;;;4064639;29;19959;-45
2022/12/25 08:23:06;;;;;;;7.20;3.92;;;30.60;57.30;;;;;;4049007;29;20478;-49
2022/12/25 08:25:28;;;;;;;5.13;3.92;;;30.60;57.40;;;;;;4056513;29;20036;-50
2022/12/25 08:27:50;;;;;;;5.93;3.97;;;30.60;57.50;;;;;;4057328;29;20130;-47
2022/12/25 08:30:13;;;;;;;4.63;3.33;;;30.60;57.60;;;;;;4052447;29;20115;-47
2022/12/25 08:32:35;;;;;;;5.70;3.77;;;30.50;57.70;;;;;;4054544;29;20059;-47
2022/12/25 08:34:58;;;;;;;6.45;3.70;;;30.50;57.70;;;;;;4053560;29;20036;-46
2022/12/25 08:37:20;;;;;;;4.13;3.35;;;30.50;57.80;;;;;;4058111;29;20284;-46
2022/12/25 08:39:43;;;;;;;4.32;3.20;;;30.50;57.80;;;;;;4058468;29;20035;-47
2022/12/25 08:42:05;;;;;;;3.70;3.30;;;30.50;57.90;;;;;;4056592;29;20481;-48
2022/12/25 08:44:28;;;;;;;3.75;2.88;;;30.50;58.00;;;;;;4049356;29;20045;-47
2022/12/25 08:46:50;;;;;;;5.05;3.67;;;30.50;58.00;;;;;;4053389;29;20051;-47
2022/12/25 08:49:12;;;;;;;6.40;3.33;;;30.50;58.00;;;;;;4062507;29;20456;-51
2022/12/25 08:51:36;;;;;;;9.02;3.45;;;30.50;58.10;;;;;;4055092;29;20051;-49
2022/12/25 08:53:59;;;;;;;4.05;3.17;;;30.50;58.00;;;;;;4056876;29;20063;-42
2022/12/25 08:56:22;;;;;;;16.42;3.92;;;30.50;58.00;;;;;;4052636;29;20044;-44
2022/12/25 08:58:48;;;;;;;5.43;3.25;;;30.50;58.20;;;;;;4052425;29;20265;-50
2022/12/25 09:01:14;;;;;;;7.65;3.80;;;30.50;58.00;;;;;;4052303;29;20047;-54
2022/12/25 09:03:36;;;;;;;4.65;3.30;;;30.50;58.10;;;;;;4052505;29;20513;-51
2022/12/25 09:06:04;;;;;;;3.90;3.50;;;30.40;58.20;;;;;;4044283;29;20417;-47
2022/12/25 09:08:27;;;;;;;4.32;3.33;;;30.40;58.30;;;;;;4043720;29;20060;-51
2022/12/25 09:10:49;;;;;;;4.30;3.90;;;30.40;58.30;;;;;;4051845;29;20563;-48
2022/12/25 09:13:12;;;;;;;4.35;3.30;;;30.40;58.40;;;;;;4058200;29;20077;-48
2022/12/25 09:15:34;;;;;;;4.03;3.30;;;30.40;58.30;;;;;;4059727;29;20047;-46
2022/12/25 09:17:57;;;;;;;5.05;3.55;;;30.40;58.40;;;;;;4065287;29;20051;-51
2022/12/25 09:20:19;;;;;;;3.70;3.30;;;30.30;58.30;;;;;;4064840;29;20118;-53
2022/12/25 09:22:41;;;;;;;3.53;3.20;;;30.30;58.30;;;;;;4053012;29;20044;-51
2022/12/25 09:25:04;;;;;;;3.40;3.10;;;30.30;58.40;;;;;;4053265;29;20032;-50
2022/12/25 09:27:27;;;;;;;3.63;2.92;;;30.30;58.60;;;;;;4050322;29;20098;-50
2022/12/25 09:29:49;;;;;;;3.47;3.13;;;30.30;58.80;;;;;;4049859;29;20039;-46
2022/12/25 09:32:12;;;;;;;3.60;3.05;;;30.20;58.80;;;;;;4052828;29;20060;-44
2022/12/25 09:34:34;;;;;;;3.22;2.92;;;30.20;58.80;;;;;;4050384;29;20115;-47
2022/12/25 09:36:57;;;;;;;3.63;2.95;;;30.20;59.60;;;;;;4054372;29;20206;-48
2022/12/25 09:39:19;;;;;;;3.63;3.03;;;30.10;59.00;;;;;;4032349;29;20037;-47
2022/12/25 09:42:01;;;;;;;3.05;2.75;;;30.10;58.90;;;;;;4051849;29;20106;-49
2022/12/25 09:44:30;;;;;;;3.13;2.80;;;30.10;59.00;;;;;;4057870;29;20120;-47
2022/12/25 09:47:06;;;;;;;3.30;2.85;;;30.10;59.00;;;;;;4055748;29;20036;-50
2022/12/25 09:49:50;;;;;;;4.13;3.13;;;30.10;59.10;;;;;;4058549;29;20040;-53
2022/12/25 09:52:22;;;;;;;3.35;2.90;;;30.10;59.10;;;;;;4047168;29;20044;-51
2022/12/25 09:54:54;;;;;;;5.28;3.38;;;30.10;59.40;;;;;;4050748;29;20071;-44
2022/12/25 09:57:16;;;;;;;4.57;3.25;;;30.10;59.60;;;;;;4033621;29;20045;-50
2022/12/25 09:59:39;;;;;;;4.57;2.97;;;30.10;59.60;;;;;;4052016;29;20044;-46
2022/12/25 10:02:34;;;;;;;4.33;3.53;;;30.10;59.70;;;;;;4054258;29;20039;-45
2022/12/25 10:05:15;;;;;;;3.58;3.15;;;30.10;59.70;;;;;;4023357;29;20055;-41
2022/12/25 10:07:45;;;;;;;7.05;3.53;;;30.10;59.60;;;;;;4051551;29;20154;-46
2022/12/25 10:10:41;;;;;;;4.55;3.53;;;30.10;59.70;;;;;;4047844;29;20035;-45
2022/12/25 10:13:21;;;;;;;3.85;3.30;;;30.10;59.60;;;;;;4054409;29;20055;-40
2022/12/25 10:16:05;;;;;;;8.18;3.20;;;30.10;59.60;;;;;;4050622;29;20552;-41
2022/12/25 10:18:59;;;;;;;3.65;3.08;;;30.10;59.60;;;;;;4057728;29;20048;-42
2022/12/25 10:21:22;;;;;;;3.47;3.17;;;30.10;59.50;;;;;;4054535;29;20134;-41
2022/12/25 10:23:59;;;;;;;;;;;30.00;59.40;;;;;;4054001;29;20041;-41
2022/12/25 10:26:24;;;;;;;3.25;2.83;;;30.10;59.40;;;;;;4054635;29;19914;-47
2022/12/25 10:29:00;;;;;;;3.63;3.28;;;30.00;59.30;;;;;;4055814;29;20047;-42
2022/12/25 10:31:36;;;;;;;3.63;3.00;;;30.00;59.30;;;;;;4053460;29;20047;-44
2022/12/25 10:33:58;;;;;;;4.22;3.05;;;30.00;59.40;;;;;;4039611;29;20040;-46
2022/12/25 10:36:26;;;;;;;3.22;2.92;;;30.00;59.30;;;;;;4053945;29;20847;-43
2022/12/25 10:38:49;;;;;;;3.42;2.92;;;30.00;59.30;;;;;;4054951;29;20054;-46
2022/12/25 10:41:21;;;;;;;3.67;2.95;;;30.00;59.30;;;;;;4052425;29;20507;-43
2022/12/25 10:43:49;;;;;;;4.57;2.85;;;30.00;59.30;;;;;;4056720;29;20610;-45
2022/12/25 10:46:13;;;;;;;2.80;2.47;;;30.00;59.30;;;;;;4055074;29;20536;-43
2022/12/25 10:48:41;;;;;;;3.03;2.50;;;30.00;59.30;;;;;;4058684;29;20040;-44
2022/12/25 10:51:03;;;;;;;3.70;3.10;;;30.00;59.20;;;;;;4047779;29;20412;-45
2022/12/25 10:53:28;;;;;;;3.73;2.40;;;30.00;59.10;;;;;;4056926;29;20047;-44
2022/12/25 10:56:02;;;;;;;2.47;2.28;;;30.00;59.10;;;;;;4051001;29;20072;-42
2022/12/25 10:58:25;;;;;;;3.47;2.72;;;30.00;59.20;;;;;;4052899;29;20098;-45
2022/12/25 11:01:00;;;;;;;3.53;2.95;;;30.00;59.20;;;;;;4054600;29;20047;-47
2022/12/25 11:03:32;;;;;;;3.03;2.53;;;29.90;58.90;;;;;;4058078;29;20469;-43
2022/12/25 11:05:55;;;;;;;3.83;2.53;;;29.90;58.90;;;;;;4060751;29;20415;-41
2022/12/25 11:08:21;;;;;;;3.10;2.55;;;29.90;59.00;;;;;;4058422;29;20458;-43
2022/12/25 11:10:51;;;;;;;3.53;2.83;;;29.90;58.90;;;;;;4056061;29;20122;-44
2022/12/25 11:13:27;;;;;;;3.28;2.33;;;29.90;58.90;;;;;;4057647;29;20131;-43
2022/12/25 11:16:10;;;;;;;2.70;2.30;;;29.90;58.90;;;;;;4056820;29;20136;-41
2022/12/25 11:18:42;;;;;;;3.13;2.42;;;29.90;58.90;;;;;;4055372;29;20071;-46
2022/12/25 11:21:19;;;;;;;2.47;2.05;;;29.90;58.90;;;;;;4049875;29;20472;-41
2022/12/25 11:23:47;;;;;;;2.30;1.90;;;29.90;59.00;;;;;;4054539;29;20071;-42
2022/12/25 11:26:11;;;;;;;3.33;2.22;;;29.90;59.00;;;;;;4054549;29;20110;-40
2022/12/25 11:28:40;;;;;;;3.40;2.20;;;29.90;58.90;;;;;;4052847;29;20496;-40
2022/12/25 11:31:11;;;;;;;2.95;2.42;;;29.80;58.90;;;;;;4052082;29;20499;-44
2022/12/25 11:33:49;;;;;;;5.07;2.28;;;29.80;59.00;;;;;;4053441;29;20803;-43
2022/12/25 11:36:48;;;;;;;3.58;2.22;;;29.70;59.40;;;;;;4056528;29;20158;-41
2022/12/25 11:39:18;;;;;;;4.15;1.92;;;29.70;59.60;;;;;;4057332;29;20040;-45
2022/12/25 11:41:42;;;;;;;3.30;2.20;;;29.70;59.80;;;;;;4051075;29;20526;-40
2022/12/25 11:44:15;;;;;;;2.45;2.15;;;29.70;59.90;;;;;;4054523;29;20051;-39
2022/12/25 11:46:45;;;;;;;2.87;2.10;;;29.70;60.00;;;;;;4047736;29;20040;-42
2022/12/25 11:49:13;;;;;;;2.78;1.95;;;29.60;60.00;;;;;;4056123;29;20776;-40
2022/12/25 11:51:39;;;;;;;3.10;2.00;;;29.60;60.00;;;;;;4056807;29;20055;-43
2022/12/25 11:54:26;;;;;;;2.80;1.90;;;29.60;60.10;;;;;;4053986;29;20119;-43
2022/12/25 11:56:50;;;;;;;4.57;2.25;;;29.60;60.20;;;;;;4050585;29;20185;-46
2022/12/25 11:59:15;;;;;;;2.30;1.65;;;29.60;60.40;;;;;;4056530;29;20421;-42
2022/12/25 12:01:49;;;;;;;2.45;1.70;;;29.60;60.40;;;;;;4059768;29;20036;-41
2022/12/25 12:04:38;;;;;;;2.30;1.70;;;29.60;60.40;;;;;;4056900;29;20583;-43
2022/12/25 12:07:15;;;;;;;2.65;1.73;;;29.60;60.70;;;;;;4054017;29;20480;-41
2022/12/25 12:09:56;;;;;;;3.42;1.60;;;29.60;60.40;;;;;;4052360;29;20036;-46
2022/12/25 12:12:37;;;;;;;1.95;1.75;;;29.60;60.30;;;;;;4054813;29;20082;-46
2022/12/25 12:15:16;;;;;;;2.70;1.70;;;29.50;60.30;;;;;;4053871;29;20134;-40
2022/12/25 12:17:38;;;;;;;1.95;1.70;;;29.50;60.40;;;;;;4056467;29;20048;-42
2022/12/25 12:20:12;;;;;;;2.95;1.60;;;29.50;60.40;;;;;;4051634;29;20405;-41
2022/12/25 12:22:36;;;;;;;2.30;1.60;;;29.50;60.40;;;;;;4053720;29;20040;-44
2022/12/25 12:25:06;;;;;;;2.53;1.83;;;29.50;60.50;;;;;;4056611;29;20032;-46
2022/12/25 12:27:39;;;;;;;2.58;1.60;;;29.50;60.50;;;;;;4060001;29;20040;-44
2022/12/25 12:30:03;;;;;;;2.00;1.55;;;29.50;60.50;;;;;;4059967;29;20036;-44
2022/12/25 12:32:39;;;;;;;4.38;1.80;;;29.50;60.50;;;;;;4059977;29;20136;-43
2022/12/25 12:35:16;;;;;;;4.45;1.80;;;29.50;60.50;;;;;;4057795;29;20044;-43
2022/12/25 12:37:40;;;;;;;3.15;1.73;;;29.50;60.50;;;;;;4054444;29;20091;-42
2022/12/25 12:40:04;;;;;;;2.42;1.70;;;29.50;60.60;;;;;;4057478;29;20043;-43
2022/12/25 12:42:31;;;;;;;2.25;1.60;;;29.50;60.70;;;;;;4055340;29;20075;-44
2022/12/25 12:44:57;;;;;;;3.60;1.50;;;29.40;60.60;;;;;;4057943;29;20502;-42
2022/12/25 12:47:36;;;;;;;2.20;1.35;;;29.40;60.60;;;;;;4052443;29;20111;-45
2022/12/25 12:50:00;;;;;;;1.52;1.30;;;29.40;60.30;;;;;;4061052;29;20059;-44
2022/12/25 12:52:34;;;;;;;2.97;1.50;;;29.40;60.70;;;;;;4061173;29;20044;-39
2022/12/25 12:55:11;;;;;;;2.53;1.83;;;29.40;60.70;;;;;;4057422;29;20043;-44
2022/12/25 12:57:38;;;;;;;2.22;1.40;;;29.40;60.70;;;;;;4063673;29;20040;-42
2022/12/25 13:00:01;;;;;;;2.70;1.40;;;29.40;60.70;;;;;;4050858;29;20581;-47
2022/12/25 13:02:26;;;;;;;2.20;1.48;;;29.30;60.70;;;;;;4062192;29;20051;-45
2022/12/25 13:05:04;;;;;;;1.70;1.30;;;29.30;60.70;;;;;;4065450;29;20032;-43
2022/12/25 13:08:03;;;;;;;2.10;1.40;;;29.30;60.70;;;;;;4061806;29;20048;-44
2022/12/25 13:10:36;;;;;;;2.38;1.65;;;29.30;60.90;;;;;;4056969;29;20465;-43
2022/12/25 13:13:19;;;;;;;2.20;1.35;;;29.30;60.90;;;;;;4061738;29;21194;-47
2022/12/25 13:15:45;;;;;;;2.95;1.33;;;29.30;61.00;;;;;;4056366;29;20035;-45
2022/12/25 13:18:11;;;;;;;4.38;1.58;;;29.30;61.00;;;;;;4055060;29;20055;-42
2022/12/25 13:20:45;;;;;;;5.28;1.50;;;29.30;61.00;;;;;;4065705;29;20519;-39
2022/12/25 13:23:27;;;;;;;5.90;1.70;;;29.30;61.10;;;;;;4069998;29;20048;-42
2022/12/25 13:26:01;;;;;;;4.95;1.70;;;29.30;61.10;;;;;;4060574;29;20075;-43
2022/12/25 13:28:28;;;;;;;3.70;1.55;;;29.30;61.10;;;;;;4064119;29;20118;-43
2022/12/25 13:30:51;;;;;;;2.35;1.38;;;29.30;61.00;;;;;;4064753;29;20095;-43
2022/12/25 13:33:18;;;;;;;2.75;1.55;;;29.30;61.00;;;;;;4065301;29;20139;-43
2022/12/25 13:35:44;;;;;;;2.13;1.35;;;29.30;61.00;;;;;;4060082;29;20040;-46
2022/12/25 13:38:15;;;;;;;3.15;1.40;;;29.30;61.00;;;;;;4050296;29;20045;-42
2022/12/25 13:40:38;;;;;;;2.78;1.48;;;29.30;61.00;;;;;;4066312;29;20039;-41
2022/12/25 13:43:01;;;;;;;3.25;1.75;;;29.30;61.10;;;;;;4068396;29;20044;-42
2022/12/25 13:45:26;;;;;;;2.40;1.40;;;29.20;61.00;;;;;;4060506;29;20091;-45
2022/12/25 13:47:50;;;;;;;4.50;1.75;;;29.20;61.00;;;;;;4065525;29;20105;-42
2022/12/25 13:50:27;;;;;;;2.90;1.70;;;29.20;61.10;;;;;;4057487;29;20439;-41
2022/12/25 13:52:50;;;;;;;2.45;1.52;;;29.20;61.00;;;;;;4068045;29;20062;-46
2022/12/25 13:55:16;;;;;;;3.60;1.88;;;29.20;61.10;;;;;;4062895;29;20396;-40
2022/12/25 13:57:45;;;;;;;3.28;1.30;;;29.20;61.30;;;;;;4067146;29;20052;-40
2022/12/25 14:00:19;;;;;;;2.90;1.20;;;29.20;61.40;;;;;;4063905;29;20066;-40
2022/12/25 14:02:41;;;;;;;;;;;29.10;61.30;;;;;;4050006;29;20068;-41
2022/12/25 14:05:22;;;;;;;2.80;1.50;;;29.10;61.30;;;;;;4064178;29;19921;-41
2022/12/25 14:07:52;;;;;;;3.88;1.55;;;29.10;61.30;;;;;;4066312;29;20495;-41
2022/12/25 14:10:14;;;;;;;2.30;1.30;;;29.10;61.30;;;;;;4061059;29;20176;-41
2022/12/25 14:12:37;;;;;;;1.98;1.17;;;29.10;61.20;;;;;;4060812;29;21120;-44
2022/12/25 14:15:00;;;;;;;2.92;1.40;;;29.10;61.20;;;;;;4062261;29;20347;-47
2022/12/25 14:17:23;;;;;;;2.15;1.30;;;29.10;61.10;;;;;;4058770;29;20048;-42
2022/12/25 14:19:46;;;;;;;3.13;1.30;;;29.10;61.10;;;;;;4054963;29;20070;-41
2022/12/25 14:22:23;;;;;;;3.08;1.60;;;29.00;61.00;;;;;;4060133;29;20536;-40
2022/12/25 14:24:45;;;;;;;2.35;1.27;;;29.00;61.00;;;;;;4057960;29;20048;-43
2022/12/25 14:27:22;;;;;;;2.50;1.33;;;29.00;61.00;;;;;;4061764;29;20082;-44